Simsboro, Louisiana
Current Conditions -  °F | °C
As of 2:35 PM on Friday 26 Dec 2014 (Local Time) from KRSN Reporting Station
Light Rain Light Rain  
Wind Chill: 53°   Ceiling: 6000
Heat Index: 53°   Visibility: 10mi
Dew Point: 52°   Wind: 5mph
Humidity: 97%   Direction: 110°ESE
Pressure: 30.11"   Gusts: NA
Location:  32.53°N, 92.79°W
Report Text: KRSN 262035Z AUTO 11004KT 10SM -RA SCT026 SCT030 OVC060 12/11 A3011 RMK AO2 P0001 T01160111
Loading
Personal Weather Stations






























Interactive Weather Map New forecast layout! Learn more

10-Day Weather Forecast

Advertisements
Track Severe Weather on mobile